Time;durP1;ratioP1;P1;durP2;ratioP2;P2;SDS_P1;SDS_P2;PMS_P1;PMS_P2;Temp;Humidity;BMP_temperature;BMP_pressure;BME280_temperature;BME280_humidity;BME280_pressure;Samples;Min_cycle;Max_cycle;Signal;HPM_P1;HPM_P2
2021/01/14 00:00:00;;;;;;;19.77;3.73;;;;;;;;;;5092033;28;20208;-72
2021/01/14 00:02:25;;;;;;;19.07;3.37;;;;;;;;;;5081787;28;20282;-72
2021/01/14 00:04:52;;;;;;;17.43;3.57;;;;;;;;;;5068758;28;20278;-72
2021/01/14 00:07:19;;;;;;;10.70;2.80;;;;;;;;;;5066911;28;20211;-73
2021/01/14 00:09:45;;;;;;;11.27;2.27;;;;;;;;;;5089201;28;20704;-71
2021/01/14 00:12:10;;;;;;;10.13;1.93;;;;;;;;;;5079215;28;20184;-72
2021/01/14 00:14:36;;;;;;;12.13;2.00;;;;;;;;;;5085370;28;20259;-72
2021/01/14 00:17:02;;;;;;;10.20;2.03;;;;;;;;;;5087689;28;20185;-72
2021/01/14 00:19:27;;;;;;;11.57;2.07;;;;;;;;;;5074397;28;20188;-72
2021/01/14 00:21:53;;;;;;;5.37;1.70;;;;;;;;;;5071337;28;20644;-72
2021/01/14 00:24:18;;;;;;;12.73;2.37;;;;;;;;;;5060471;28;20192;-72
2021/01/14 00:26:45;;;;;;;9.87;1.20;;;;;;;;;;5087159;28;20700;-72
2021/01/14 00:29:11;;;;;;;6.17;1.30;;;;;;;;;;5080256;28;20192;-72
2021/01/14 00:31:37;;;;;;;13.57;1.20;;;;;;;;;;5089736;28;20716;-72
2021/01/14 00:34:02;;;;;;;8.53;1.73;;;;;;;;;;5078431;28;20215;-72
2021/01/14 00:39:23;;;;;;;11.73;1.40;;;;;;;;;;5077777;28;20281;-73
2021/01/14 00:41:48;;;;;;;10.27;1.40;;;;;;;;;;5087935;28;20184;-72
2021/01/14 00:44:13;;;;;;;8.20;1.60;;;;;;;;;;5062770;28;20666;-72
2021/01/14 00:46:39;;;;;;;9.77;1.90;;;;;;;;;;5088556;28;20188;-72
2021/01/14 00:49:05;;;;;;;8.87;1.87;;;;;;;;;;5073564;28;20188;-72
2021/01/14 00:51:34;;;;;;;13.43;1.90;;;;;;;;;;5087555;28;20613;-72
2021/01/14 00:53:59;;;;;;;8.33;1.73;;;;;;;;;;5080950;28;20279;-72
2021/01/14 00:56:35;;;;;;;8.30;1.80;;;;;;;;;;5084897;28;20251;-72
2021/01/14 00:59:01;;;;;;;10.63;1.83;;;;;;;;;;5086747;28;20188;-72
2021/01/14 01:01:27;;;;;;;11.83;2.00;;;;;;;;;;5080542;28;20183;-72
2021/01/14 01:03:53;;;;;;;8.40;1.43;;;;;;;;;;5088535;28;20208;-72
2021/01/14 01:06:22;;;;;;;8.63;1.67;;;;;;;;;;5075806;28;20347;-72
2021/01/14 01:08:48;;;;;;;5.63;1.30;;;;;;;;;;5085977;28;20179;-72
2021/01/14 01:11:14;;;;;;;9.80;1.57;;;;;;;;;;5076593;28;20196;-72
2021/01/14 01:13:39;;;;;;;8.03;2.07;;;;;;;;;;5065617;28;20666;-73
2021/01/14 01:16:05;;;;;;;9.63;1.53;;;;;;;;;;5076732;28;20223;-72
2021/01/14 01:18:30;;;;;;;10.83;1.63;;;;;;;;;;5087214;28;20658;-72
2021/01/14 01:20:55;;;;;;;9.67;1.10;;;;;;;;;;5078457;28;20218;-72
2021/01/14 01:23:21;;;;;;;8.47;1.37;;;;;;;;;;5087604;28;20693;-73
2021/01/14 01:25:46;;;;;;;7.77;1.23;;;;;;;;;;5078803;28;20198;-72
2021/01/14 01:28:11;;;;;;;4.97;1.10;;;;;;;;;;5069411;28;20195;-72
2021/01/14 01:30:37;;;;;;;7.03;1.07;;;;;;;;;;5087672;28;20184;-72
2021/01/14 01:33:05;;;;;;;9.93;1.27;;;;;;;;;;5061255;28;20241;-72
2021/01/14 01:35:30;;;;;;;9.13;1.40;;;;;;;;;;5084530;28;20620;-72
2021/01/14 01:37:55;;;;;;;6.13;1.07;;;;;;;;;;5078501;28;20326;-72
2021/01/14 01:40:21;;;;;;;6.77;1.10;;;;;;;;;;5086783;28;20208;-72
2021/01/14 01:42:54;;;;;;;6.93;1.43;;;;;;;;;;5077593;28;20210;-73
2021/01/14 01:45:19;;;;;;;8.57;1.30;;;;;;;;;;5081500;28;20216;-72
2021/01/14 01:47:44;;;;;;;6.20;1.03;;;;;;;;;;5076978;28;20230;-72
2021/01/14 01:50:10;;;;;;;10.43;1.47;;;;;;;;;;5088443;28;20575;-72
2021/01/14 01:52:36;;;;;;;6.43;1.10;;;;;;;;;;5075965;28;20199;-72
2021/01/14 01:55:03;;;;;;;11.30;1.87;;;;;;;;;;5084785;28;20199;-72
2021/01/14 01:57:28;;;;;;;8.53;1.10;;;;;;;;;;5075915;28;20527;-72
2021/01/14 01:59:54;;;;;;;7.50;1.23;;;;;;;;;;5087460;28;20199;-72
2021/01/14 02:02:25;;;;;;;8.13;1.40;;;;;;;;;;5077839;28;20199;-72
2021/01/14 02:04:51;;;;;;;7.30;1.40;;;;;;;;;;5085988;28;20217;-72
2021/01/14 02:07:56;;;;;;;13.10;2.17;;;;;;;;;;5086508;28;20282;-72
2021/01/14 02:10:27;;;;;;;8.17;1.60;;;;;;;;;;5078861;28;20639;-72
2021/01/14 02:13:39;;;;;;;10.83;1.10;;;;;;;;;;5062908;28;20179;-73
2021/01/14 02:16:05;;;;;;;11.27;1.07;;;;;;;;;;5083950;28;20242;-72
2021/01/14 02:18:31;;;;;;;3.60;1.10;;;;;;;;;;5071398;28;20188;-73
2021/01/14 02:21:10;;;;;;;10.73;1.20;;;;;;;;;;5083299;28;20192;-72
2021/01/14 02:23:52;;;;;;;5.87;1.70;;;;;;;;;;5060216;28;20696;-72
2021/01/14 02:26:25;;;;;;;6.77;0.90;;;;;;;;;;5086475;28;20651;-72
2021/01/14 02:28:52;;;;;;;9.70;1.20;;;;;;;;;;5061216;28;20443;-72
2021/01/14 02:31:20;;;;;;;6.00;1.03;;;;;;;;;;5087285;28;20708;-72
2021/01/14 02:33:47;;;;;;;9.57;1.10;;;;;;;;;;5082089;28;20548;-72
2021/01/14 02:36:13;;;;;;;11.53;1.03;;;;;;;;;;5061062;28;20188;-72
2021/01/14 02:38:40;;;;;;;6.90;1.17;;;;;;;;;;5072832;28;20229;-72
2021/01/14 02:41:06;;;;;;;6.03;0.90;;;;;;;;;;5058100;28;20243;-72
2021/01/14 02:43:31;;;;;;;8.73;1.77;;;;;;;;;;5069198;28;20209;-73
2021/01/14 02:45:56;;;;;;;10.27;1.40;;;;;;;;;;5055596;28;20674;-72
2021/01/14 02:48:34;;;;;;;2.97;0.87;;;;;;;;;;5059717;28;20705;-72
2021/01/14 02:51:04;;;;;;;7.23;1.20;;;;;;;;;;5046389;28;20196;-72
2021/01/14 02:53:30;;;;;;;9.50;1.27;;;;;;;;;;5064937;28;20660;-72
2021/01/14 02:55:56;;;;;;;5.80;1.07;;;;;;;;;;5057702;28;20184;-73
2021/01/14 02:58:21;;;;;;;13.27;1.60;;;;;;;;;;5047596;28;20207;-72
2021/01/14 03:00:46;;;;;;;8.83;1.03;;;;;;;;;;5032725;28;20247;-72
2021/01/14 03:03:12;;;;;;;7.87;1.33;;;;;;;;;;5065600;28;20215;-72
2021/01/14 03:05:37;;;;;;;10.73;1.17;;;;;;;;;;5038205;28;20204;-72
2021/01/14 03:08:02;;;;;;;4.67;1.50;;;;;;;;;;5063514;28;20240;-72
2021/01/14 03:10:28;;;;;;;4.67;1.10;;;;;;;;;;5060026;28;20193;-72
2021/01/14 03:12:55;;;;;;;8.40;1.20;;;;;;;;;;5058820;28;20229;-72
2021/01/14 03:15:20;;;;;;;6.90;1.10;;;;;;;;;;5063172;28;20190;-72
2021/01/14 03:17:46;;;;;;;6.70;1.20;;;;;;;;;;5062303;28;20192;-72
2021/01/14 03:20:11;;;;;;;5.53;1.57;;;;;;;;;;5066839;28;20211;-72
2021/01/14 03:22:40;;;;;;;11.73;1.60;;;;;;;;;;5061331;28;20215;-72
2021/01/14 03:25:10;;;;;;;6.17;1.47;;;;;;;;;;5071307;28;20193;-72
2021/01/14 03:27:40;;;;;;;11.20;1.47;;;;;;;;;;5043931;28;20648;-72
2021/01/14 03:30:07;;;;;;;5.80;1.50;;;;;;;;;;5066472;28;20550;-71
2021/01/14 03:32:33;;;;;;;8.93;1.17;;;;;;;;;;5057941;28;20777;-72
2021/01/14 03:34:58;;;;;;;11.57;1.43;;;;;;;;;;5068928;28;20230;-71
2021/01/14 03:37:24;;;;;;;8.70;1.33;;;;;;;;;;5068863;28;20239;-72
2021/01/14 03:39:49;;;;;;;6.27;1.30;;;;;;;;;;5091955;28;20188;-72
2021/01/14 03:42:20;;;;;;;6.70;1.43;;;;;;;;;;5076598;28;20233;-71
2021/01/14 03:44:45;;;;;;;7.60;1.13;;;;;;;;;;5068341;28;20627;-71
2021/01/14 03:47:11;;;;;;;8.30;1.37;;;;;;;;;;5092629;28;20261;-71
2021/01/14 03:49:36;;;;;;;9.57;1.97;;;;;;;;;;5057680;28;20219;-71
2021/01/14 03:52:02;;;;;;;14.03;1.60;;;;;;;;;;5074720;28;20206;-71
2021/01/14 03:54:28;;;;;;;8.10;1.17;;;;;;;;;;5049016;28;20200;-71
2021/01/14 03:56:53;;;;;;;8.03;1.40;;;;;;;;;;5091630;28;20203;-71
2021/01/14 03:59:18;;;;;;;8.97;1.40;;;;;;;;;;5085521;28;20246;-71
2021/01/14 04:01:44;;;;;;;11.77;1.50;;;;;;;;;;5071266;28;20196;-71
2021/01/14 04:04:09;;;;;;;10.80;1.20;;;;;;;;;;5086183;28;20188;-71
2021/01/14 04:06:36;;;;;;;12.70;1.50;;;;;;;;;;5079359;28;20208;-71
2021/01/14 04:09:02;;;;;;;4.70;1.43;;;;;;;;;;5082975;28;20600;-71
2021/01/14 04:11:28;;;;;;;7.50;1.43;;;;;;;;;;5087991;28;20180;-70
2021/01/14 04:13:54;;;;;;;8.63;1.30;;;;;;;;;;5078857;28;20257;-71
2021/01/14 04:16:20;;;;;;;8.37;1.30;;;;;;;;;;5067057;28;20204;-70
2021/01/14 04:18:46;;;;;;;9.83;1.30;;;;;;;;;;5091768;28;20180;-70
2021/01/14 04:21:15;;;;;;;8.17;1.50;;;;;;;;;;5068270;28;20252;-70
2021/01/14 04:23:42;;;;;;;4.47;0.97;;;;;;;;;;5061633;28;20204;-70
2021/01/14 04:26:07;;;;;;;6.13;1.40;;;;;;;;;;5079061;28;20209;-71
2021/01/14 04:28:33;;;;;;;13.60;1.70;;;;;;;;;;5087775;28;20775;-70
2021/01/14 04:30:58;;;;;;;9.73;1.50;;;;;;;;;;5059425;28;20734;-70
2021/01/14 04:33:23;;;;;;;9.77;1.60;;;;;;;;;;5091172;28;20232;-70
2021/01/14 04:35:57;;;;;;;9.07;1.70;;;;;;;;;;5078658;28;20184;-70
2021/01/14 04:38:25;;;;;;;7.00;1.57;;;;;;;;;;5096730;28;20279;-70
2021/01/14 04:41:09;;;;;;;3.80;1.43;;;;;;;;;;5081920;28;20646;-70
2021/01/14 04:43:35;;;;;;;6.23;1.40;;;;;;;;;;5073215;28;20241;-70
2021/01/14 04:46:05;;;;;;;6.20;2.00;;;;;;;;;;5066685;28;20195;-70
2021/01/14 04:48:34;;;;;;;4.07;1.30;;;;;;;;;;5090019;28;20639;-70
2021/01/14 04:51:07;;;;;;;14.50;2.20;;;;;;;;;;5081852;28;20313;-70
2021/01/14 04:53:34;;;;;;;6.40;1.60;;;;;;;;;;5079160;28;20182;-70
2021/01/14 04:56:02;;;;;;;13.93;2.17;;;;;;;;;;5069734;28;20195;-70
2021/01/14 04:58:29;;;;;;;23.57;3.77;;;;;;;;;;5087995;28;20196;-70
2021/01/14 05:00:57;;;;;;;9.17;2.30;;;;;;;;;;5088007;28;20203;-70
2021/01/14 05:03:27;;;;;;;6.90;1.57;;;;;;;;;;5068188;28;20199;-70
2021/01/14 05:05:55;;;;;;;8.73;1.43;;;;;;;;;;5082614;28;20200;-70
2021/01/14 05:08:28;;;;;;;3.77;1.43;;;;;;;;;;5066843;28;20190;-70
2021/01/14 05:10:55;;;;;;;7.20;1.80;;;;;;;;;;5089199;28;20181;-70
2021/01/14 05:13:21;;;;;;;9.00;1.70;;;;;;;;;;5068794;28;20188;-70
2021/01/14 05:15:47;;;;;;;12.17;1.80;;;;;;;;;;5074468;28;20180;-70
2021/01/14 05:18:13;;;;;;;5.27;1.50;;;;;;;;;;5083793;28;20223;-70
2021/01/14 05:20:38;;;;;;;6.97;1.53;;;;;;;;;;5087556;28;20180;-69
2021/01/14 05:23:05;;;;;;;5.77;1.60;;;;;;;;;;5072632;28;20221;-70
2021/01/14 05:25:32;;;;;;;8.23;1.43;;;;;;;;;;5088865;28;20245;-70
2021/01/14 05:28:13;;;;;;;7.87;1.83;;;;;;;;;;5080066;28;20186;-70
2021/01/14 05:30:39;;;;;;;9.93;1.87;;;;;;;;;;5072516;28;20184;-70
2021/01/14 05:33:15;;;;;;;7.13;1.40;;;;;;;;;;5081915;28;20183;-70
2021/01/14 05:35:48;;;;;;;9.00;2.00;;;;;;;;;;5084007;28;20538;-70
2021/01/14 05:38:30;;;;;;;5.37;2.00;;;;;;;;;;5076668;28;20231;-70
2021/01/14 05:41:20;;;;;;;8.20;2.77;;;;;;;;;;5086409;28;20179;-70
2021/01/14 05:43:59;;;;;;;10.80;3.10;;;;;;;;;;5075743;28;24653;-70
2021/01/14 05:46:25;;;;;;;13.73;2.80;;;;;;;;;;5081126;28;20267;-70
2021/01/14 05:48:53;;;;;;;15.80;3.00;;;;;;;;;;5074677;28;20198;-70
2021/01/14 05:51:23;;;;;;;10.50;2.57;;;;;;;;;;5083336;28;20668;-71
2021/01/14 05:54:05;;;;;;;11.80;2.60;;;;;;;;;;5085473;28;20176;-70
2021/01/14 05:56:38;;;;;;;11.10;2.20;;;;;;;;;;5086809;28;20195;-70
2021/01/14 05:59:08;;;;;;;12.20;2.50;;;;;;;;;;5082032;28;20648;-70
2021/01/14 06:01:35;;;;;;;6.93;2.40;;;;;;;;;;5078844;28;20647;-69
2021/01/14 06:04:23;;;;;;;15.53;2.90;;;;;;;;;;5086886;28;20222;-69
2021/01/14 06:06:50;;;;;;;9.17;2.33;;;;;;;;;;4372500;28;10000834;-69
2021/01/14 06:09:18;;;;;;;5.87;2.13;;;;;;;;;;5083203;28;20222;-69
2021/01/14 06:11:44;;;;;;;9.03;2.30;;;;;;;;;;5074444;28;20620;-69
2021/01/14 06:14:24;;;;;;;11.33;2.47;;;;;;;;;;5083851;28;20223;-69
2021/01/14 06:16:50;;;;;;;11.43;2.43;;;;;;;;;;5069731;28;20195;-69
2021/01/14 06:19:16;;;;;;;7.20;2.43;;;;;;;;;;5079203;28;20644;-69
2021/01/14 06:21:49;;;;;;;10.97;2.40;;;;;;;;;;5068821;28;20209;-69
2021/01/14 06:24:19;;;;;;;8.57;2.10;;;;;;;;;;5081565;28;20248;-69
2021/01/14 06:26:45;;;;;;;10.40;3.00;;;;;;;;;;5071541;28;20188;-69
2021/01/14 06:29:21;;;;;;;10.97;2.70;;;;;;;;;;5082354;28;20188;-69
2021/01/14 06:31:47;;;;;;;7.03;2.43;;;;;;;;;;5068559;28;20302;-69
2021/01/14 06:34:15;;;;;;;17.80;2.53;;;;;;;;;;5079359;28;20260;-69
2021/01/14 06:36:41;;;;;;;8.30;2.00;;;;;;;;;;5069752;28;20581;-69
2021/01/14 06:39:18;;;;;;;5.50;2.50;;;;;;;;;;5082161;28;20235;-69
2021/01/14 06:41:45;;;;;;;8.93;2.20;;;;;;;;;;5070475;28;20541;-69
2021/01/14 06:44:14;;;;;;;11.57;2.37;;;;;;;;;;5081627;28;20184;-68
2021/01/14 06:46:40;;;;;;;12.63;3.07;;;;;;;;;;5073150;28;20615;-69
2021/01/14 06:49:11;;;;;;;10.53;2.63;;;;;;;;;;5087189;28;20179;-69
2021/01/14 06:51:51;;;;;;;10.23;2.90;;;;;;;;;;5087114;28;20527;-69
2021/01/14 06:54:18;;;;;;;17.20;3.03;;;;;;;;;;5076395;28;20192;-69
2021/01/14 06:57:16;;;;;;;17.73;3.30;;;;;;;;;;5083812;28;20271;-69
2021/01/14 06:59:42;;;;;;;11.20;2.70;;;;;;;;;;5085357;28;20722;-69
2021/01/14 07:02:07;;;;;;;12.90;3.17;;;;;;;;;;5085443;28;20864;-69
2021/01/14 07:04:42;;;;;;;13.83;2.97;;;;;;;;;;5078464;28;20187;-69
2021/01/14 07:07:26;;;;;;;9.40;3.17;;;;;;;;;;5087633;28;20294;-69
2021/01/14 07:10:10;;;;;;;11.57;2.97;;;;;;;;;;5077661;28;20575;-69
2021/01/14 07:12:38;;;;;;;8.30;2.57;;;;;;;;;;5081301;28;20182;-70
2021/01/14 07:15:09;;;;;;;12.17;2.83;;;;;;;;;;5078886;28;20215;-69
2021/01/14 07:17:37;;;;;;;11.50;2.83;;;;;;;;;;5089225;28;20536;-69
2021/01/14 07:20:05;;;;;;;9.00;2.70;;;;;;;;;;4724319;28;10000439;-69
2021/01/14 07:22:31;;;;;;;10.03;2.80;;;;;;;;;;5084243;28;20612;-71
2021/01/14 07:25:00;;;;;;;11.37;2.60;;;;;;;;;;5073027;28;20184;-69
2021/01/14 07:27:27;;;;;;;7.57;2.50;;;;;;;;;;5083981;28;20614;-70
2021/01/14 07:29:55;;;;;;;4.97;2.63;;;;;;;;;;5075684;28;20455;-71
2021/01/14 07:32:51;;;;;;;9.47;2.33;;;;;;;;;;5085204;28;20667;-71
2021/01/14 07:35:40;;;;;;;9.67;2.40;;;;;;;;;;5076436;28;20183;-70
2021/01/14 07:38:07;;;;;;;9.97;2.60;;;;;;;;;;5085764;28;20228;-70
2021/01/14 07:40:34;;;;;;;8.27;2.40;;;;;;;;;;5077457;28;20283;-70
2021/01/14 07:43:02;;;;;;;12.83;2.80;;;;;;;;;;5086247;28;20208;-70
2021/01/14 07:45:28;;;;;;;9.17;2.57;;;;;;;;;;5074991;28;20632;-70
2021/01/14 07:47:53;;;;;;;8.57;2.43;;;;;;;;;;5086671;28;20249;-69
2021/01/14 07:50:28;;;;;;;11.83;2.67;;;;;;;;;;5061221;28;20241;-70
2021/01/14 07:52:55;;;;;;;14.87;3.13;;;;;;;;;;5084777;28;20184;-70
2021/01/14 07:55:36;;;;;;;10.50;2.83;;;;;;;;;;5078801;28;26295;-70
2021/01/14 07:58:05;;;;;;;13.83;3.80;;;;;;;;;;5084241;28;20257;-70
2021/01/14 08:00:31;;;;;;;11.40;3.27;;;;;;;;;;5077851;28;20176;-70
2021/01/14 08:03:05;;;;;;;13.37;3.10;;;;;;;;;;5086711;28;20210;-70
2021/01/14 08:05:56;;;;;;;12.30;2.87;;;;;;;;;;5087832;28;20217;-70
2021/01/14 08:08:37;;;;;;;9.37;2.97;;;;;;;;;;5082107;28;20268;-70
2021/01/14 08:11:11;;;;;;;19.13;3.57;;;;;;;;;;5066898;28;20179;-70
2021/01/14 08:14:05;;;;;;;12.43;3.00;;;;;;;;;;5083547;28;20262;-70
2021/01/14 08:16:35;;;;;;;11.80;3.27;;;;;;;;;;5073876;28;20199;-70
2021/01/14 08:19:19;;;;;;;10.07;3.30;;;;;;;;;;5084154;28;20188;-70
2021/01/14 08:21:47;;;;;;;13.40;3.70;;;;;;;;;;5087609;28;20188;-70
2021/01/14 08:24:34;;;;;;;16.77;3.73;;;;;;;;;;5089079;28;20204;-70
2021/01/14 08:27:04;;;;;;;8.67;3.07;;;;;;;;;;5081585;28;20267;-70
2021/01/14 08:29:57;;;;;;;11.67;3.83;;;;;;;;;;5086392;28;20242;-70
2021/01/14 08:32:29;;;;;;;14.27;3.63;;;;;;;;;;5061715;28;20211;-70
2021/01/14 08:34:56;;;;;;;9.60;3.53;;;;;;;;;;5084950;28;20180;-70
2021/01/14 08:37:36;;;;;;;11.83;3.40;;;;;;;;;;5078513;28;20223;-70
2021/01/14 08:40:05;;;;;;;17.83;3.93;;;;;;;;;;5087193;28;20628;-70
2021/01/14 08:42:32;;;;;;;10.10;4.13;;;;;;;;;;5074385;28;20212;-70
2021/01/14 08:45:07;;;;;;;12.00;4.07;;;;;;;;;;5088477;28;20188;-70
2021/01/14 08:47:51;;;;;;;13.93;4.60;;;;;;;;;;5074410;28;20188;-70
2021/01/14 08:50:38;;;;;;;14.40;4.23;;;;;;;;;;5080513;28;20241;-70
2021/01/14 08:53:11;;;;;;;14.63;4.10;;;;;;;;;;5060427;28;20231;-70
2021/01/14 08:55:37;;;;;;;11.53;3.47;;;;;;;;;;5092118;28;20792;-70
2021/01/14 08:58:07;;;;;;;14.87;3.90;;;;;;;;;;5084869;28;20454;-70
2021/01/14 09:00:33;;;;;;;20.37;4.70;;;;;;;;;;5079465;28;20211;-70
2021/01/14 09:02:59;;;;;;;17.03;4.60;;;;;;;;;;5088006;28;20220;-70
2021/01/14 09:05:24;;;;;;;14.23;4.70;;;;;;;;;;5075825;28;20646;-70
2021/01/14 09:08:04;;;;;;;16.37;4.83;;;;;;;;;;5086759;28;20184;-70
2021/01/14 09:10:40;;;;;;;14.17;5.50;;;;;;;;;;5077637;28;20200;-70
2021/01/14 09:13:10;;;;;;;13.30;5.50;;;;;;;;;;5066048;28;20666;-70
2021/01/14 09:15:36;;;;;;;18.53;7.20;;;;;;;;;;5077458;28;20643;-70
2021/01/14 09:18:01;;;;;;;26.20;8.43;;;;;;;;;;5080687;28;20188;-70
2021/01/14 09:20:29;;;;;;;18.27;7.30;;;;;;;;;;5077501;28;20220;-69
2021/01/14 09:22:58;;;;;;;21.73;8.30;;;;;;;;;;5086615;28;20658;-70
2021/01/14 09:25:34;;;;;;;16.47;7.43;;;;;;;;;;5079051;28;20272;-69
2021/01/14 09:27:59;;;;;;;17.60;7.03;;;;;;;;;;5088267;28;20630;-69
2021/01/14 09:30:25;;;;;;;21.17;7.00;;;;;;;;;;5081411;28;20479;-69
2021/01/14 09:32:58;;;;;;;22.63;7.53;;;;;;;;;;5070827;28;20250;-69
2021/01/14 09:35:25;;;;;;;15.47;7.20;;;;;;;;;;5080814;28;20191;-69
2021/01/14 09:37:53;;;;;;;18.93;6.50;;;;;;;;;;5086643;28;20311;-69
2021/01/14 09:40:18;;;;;;;17.63;6.00;;;;;;;;;;5088628;28;20199;-69
2021/01/14 09:42:45;;;;;;;19.00;5.63;;;;;;;;;;5073084;28;20199;-69
2021/01/14 09:45:11;;;;;;;18.57;5.83;;;;;;;;;;5089667;28;20191;-69
2021/01/14 09:47:38;;;;;;;11.57;5.30;;;;;;;;;;5073774;28;20184;-69
2021/01/14 09:50:03;;;;;;;16.20;5.80;;;;;;;;;;5085322;28;20554;-69
2021/01/14 09:52:29;;;;;;;20.00;6.10;;;;;;;;;;5078809;28;20179;-69
2021/01/14 09:54:56;;;;;;;14.83;6.00;;;;;;;;;;5081677;28;20207;-69
2021/01/14 09:57:23;;;;;;;14.87;5.73;;;;;;;;;;5073943;28;20192;-69
2021/01/14 09:59:50;;;;;;;12.67;5.10;;;;;;;;;;5082026;28;20224;-69
2021/01/14 10:02:25;;;;;;;12.13;4.87;;;;;;;;;;5074817;28;20208;-69
2021/01/14 10:04:59;;;;;;;18.77;4.60;;;;;;;;;;5086163;28;20191;-69
2021/01/14 10:07:25;;;;;;;16.13;4.50;;;;;;;;;;5079648;28;20218;-69
2021/01/14 10:09:53;;;;;;;20.90;4.90;;;;;;;;;;5081772;28;20200;-69
2021/01/14 10:12:18;;;;;;;11.07;4.13;;;;;;;;;;5077818;28;20258;-69
2021/01/14 10:14:44;;;;;;;12.30;4.47;;;;;;;;;;5088616;28;20196;-69
2021/01/14 10:17:18;;;;;;;15.07;4.20;;;;;;;;;;5076299;28;20184;-69
2021/01/14 10:19:49;;;;;;;9.90;4.20;;;;;;;;;;5083100;28;20250;-69
2021/01/14 10:22:15;;;;;;;13.40;4.00;;;;;;;;;;5087365;28;20228;-69
2021/01/14 10:24:41;;;;;;;11.70;4.10;;;;;;;;;;5070916;28;20230;-70
2021/01/14 10:27:24;;;;;;;10.87;3.63;;;;;;;;;;5086843;28;20211;-70
2021/01/14 10:29:55;;;;;;;11.03;3.70;;;;;;;;;;5073670;28;20189;-70
2021/01/14 10:32:24;;;;;;;11.60;3.50;;;;;;;;;;5093326;28;20180;-70
2021/01/14 10:34:51;;;;;;;8.50;3.77;;;;;;;;;;5075675;28;20196;-70
2021/01/14 10:37:30;;;;;;;10.33;3.47;;;;;;;;;;5087812;28;20236;-69
2021/01/14 10:40:00;;;;;;;10.10;4.10;;;;;;;;;;5076264;28;20192;-70
2021/01/14 10:42:39;;;;;;;11.27;3.37;;;;;;;;;;5086580;28;20212;-70
2021/01/14 10:45:11;;;;;;;9.67;3.50;;;;;;;;;;5070651;28;20199;-70
2021/01/14 10:47:37;;;;;;;13.87;3.47;;;;;;;;;;5086123;28;20203;-70
2021/01/14 10:50:22;;;;;;;13.40;4.07;;;;;;;;;;5076431;28;20180;-70
2021/01/14 10:53:04;;;;;;;11.80;3.60;;;;;;;;;;5081107;28;20340;-70
2021/01/14 10:55:31;;;;;;;13.67;5.57;;;;;;;;;;5074110;28;20609;-70
2021/01/14 10:57:58;;;;;;;10.47;3.77;;;;;;;;;;5080738;28;20215;-70
2021/01/14 11:00:34;;;;;;;13.17;3.83;;;;;;;;;;5076911;28;20226;-70
2021/01/14 11:03:05;;;;;;;13.43;3.83;;;;;;;;;;5082663;28;20298;-70
2021/01/14 11:05:43;;;;;;;9.07;4.03;;;;;;;;;;5075407;28;20230;-71
2021/01/14 11:08:10;;;;;;;9.10;3.43;;;;;;;;;;5083016;28;20714;-70
2021/01/14 11:10:36;;;;;;;10.60;3.33;;;;;;;;;;5075399;28;20595;-71
2021/01/14 11:13:13;;;;;;;10.07;4.00;;;;;;;;;;5086629;28;20188;-71
2021/01/14 11:15:38;;;;;;;11.53;3.60;;;;;;;;;;5075611;28;20546;-71
2021/01/14 11:18:06;;;;;;;11.67;3.83;;;;;;;;;;4381604;28;10000716;-71
2021/01/14 11:20:33;;;;;;;14.03;3.70;;;;;;;;;;5072344;28;20199;-71
2021/01/14 11:22:58;;;;;;;15.53;5.00;;;;;;;;;;5083937;28;20602;-71
2021/01/14 11:25:24;;;;;;;9.93;4.30;;;;;;;;;;5083871;28;20236;-71
2021/01/14 11:27:49;;;;;;;16.57;5.37;;;;;;;;;;5075530;28;20195;-71
2021/01/14 11:30:15;;;;;;;8.47;4.07;;;;;;;;;;5082447;28;20180;-71
2021/01/14 11:32:41;;;;;;;9.43;4.60;;;;;;;;;;5073298;28;20632;-71
2021/01/14 11:35:08;;;;;;;15.00;4.50;;;;;;;;;;5084885;28;20191;-71
2021/01/14 11:37:33;;;;;;;10.70;4.40;;;;;;;;;;5072610;28;20278;-71
2021/01/14 11:39:58;;;;;;;9.60;4.87;;;;;;;;;;5089738;28;20655;-71
2021/01/14 11:42:28;;;;;;;10.20;4.40;;;;;;;;;;5072989;28;20670;-71
2021/01/14 11:44:54;;;;;;;11.97;4.77;;;;;;;;;;5093957;28;20255;-72
2021/01/14 11:47:19;;;;;;;10.93;4.83;;;;;;;;;;5077458;28;20192;-71
2021/01/14 11:49:44;;;;;;;11.50;5.43;;;;;;;;;;5088729;28;20224;-71
2021/01/14 11:52:10;;;;;;;14.33;5.03;;;;;;;;;;5078518;28;20194;-70
2021/01/14 11:54:35;;;;;;;12.77;4.40;;;;;;;;;;5084164;28;20282;-70
2021/01/14 11:57:00;;;;;;;17.43;4.70;;;;;;;;;;5084944;28;20203;-70
2021/01/14 11:59:26;;;;;;;9.40;4.47;;;;;;;;;;5075578;28;20193;-70
2021/01/14 12:01:51;;;;;;;17.07;4.97;;;;;;;;;;5086224;28;20602;-70
2021/01/14 12:04:16;;;;;;;11.90;5.67;;;;;;;;;;5075852;28;20204;-70
2021/01/14 12:06:41;;;;;;;14.17;5.30;;;;;;;;;;5085230;28;20671;-70
2021/01/14 12:09:07;;;;;;;12.17;5.40;;;;;;;;;;5080325;28;20219;-70
2021/01/14 12:11:32;;;;;;;13.83;5.77;;;;;;;;;;5084950;28;20192;-70
2021/01/14 12:13:57;;;;;;;12.53;4.90;;;;;;;;;;5079717;28;20198;-70
2021/01/14 12:16:23;;;;;;;16.50;5.10;;;;;;;;;;5084332;28;20180;-70
2021/01/14 12:18:48;;;;;;;10.43;5.13;;;;;;;;;;5077892;28;20554;-70
2021/01/14 12:21:14;;;;;;;13.23;5.13;;;;;;;;;;5068570;28;20200;-70
2021/01/14 12:23:40;;;;;;;13.80;5.50;;;;;;;;;;5088746;28;20254;-71
2021/01/14 12:26:05;;;;;;;11.97;4.77;;;;;;;;;;5074243;28;20583;-70
2021/01/14 12:28:30;;;;;;;10.90;5.30;;;;;;;;;;5084283;28;20210;-70
2021/01/14 12:30:56;;;;;;;17.13;5.87;;;;;;;;;;5075668;28;20192;-70
2021/01/14 12:33:21;;;;;;;10.63;4.93;;;;;;;;;;5089051;28;20229;-70
2021/01/14 12:35:46;;;;;;;9.90;5.73;;;;;;;;;;5076493;28;20184;-70
2021/01/14 12:38:11;;;;;;;14.63;5.20;;;;;;;;;;5085332;28;20281;-70
2021/01/14 12:40:37;;;;;;;15.27;5.60;;;;;;;;;;5075534;28;20317;-69
2021/01/14 12:43:02;;;;;;;13.23;5.50;;;;;;;;;;5088508;28;20566;-70
2021/01/14 12:45:27;;;;;;;16.97;6.03;;;;;;;;;;5071830;28;20223;-70
2021/01/14 12:47:54;;;;;;;12.57;5.53;;;;;;;;;;5085498;28;20204;-70
2021/01/14 12:50:19;;;;;;;14.10;5.80;;;;;;;;;;5076913;28;20639;-70
2021/01/14 12:52:44;;;;;;;16.17;6.20;;;;;;;;;;5087039;28;20233;-70
2021/01/14 12:55:10;;;;;;;14.77;5.70;;;;;;;;;;5086708;28;20188;-70
2021/01/14 12:57:35;;;;;;;15.70;6.00;;;;;;;;;;5079942;28;20188;-70
2021/01/14 13:00:01;;;;;;;15.53;5.63;;;;;;;;;;5086174;28;20234;-70
2021/01/14 13:02:26;;;;;;;12.83;5.90;;;;;;;;;;5078472;28;20238;-70
2021/01/14 13:04:51;;;;;;;14.80;6.00;;;;;;;;;;5086641;28;20203;-70
2021/01/14 13:07:17;;;;;;;14.20;6.20;;;;;;;;;;5078493;28;20727;-70
2021/01/14 13:09:42;;;;;;;15.60;6.00;;;;;;;;;;5086916;28;20310;-70
2021/01/14 13:12:07;;;;;;;11.33;5.83;;;;;;;;;;5077601;28;20188;-70
2021/01/14 13:14:33;;;;;;;18.50;5.63;;;;;;;;;;5083245;28;20191;-70
2021/01/14 13:16:58;;;;;;;14.13;5.43;;;;;;;;;;5080459;28;20188;-70
2021/01/14 13:19:23;;;;;;;16.67;6.03;;;;;;;;;;5087299;28;20321;-70
2021/01/14 13:21:49;;;;;;;15.57;5.30;;;;;;;;;;5077509;28;20211;-70
2021/01/14 13:24:17;;;;;;;12.43;5.93;;;;;;;;;;5068447;28;20216;-70
2021/01/14 13:26:43;;;;;;;14.80;5.70;;;;;;;;;;5087156;28;20192;-70
2021/01/14 13:29:10;;;;;;;12.77;5.93;;;;;;;;;;5073315;28;20753;-70
2021/01/14 13:31:47;;;;;;;11.63;5.83;;;;;;;;;;5084106;28;20182;-70
2021/01/14 13:34:13;;;;;;;13.80;6.03;;;;;;;;;;5056386;28;20287;-70
2021/01/14 13:36:41;;;;;;;15.57;6.13;;;;;;;;;;5083710;28;20191;-70
2021/01/14 13:39:08;;;;;;;21.13;6.30;;;;;;;;;;5054731;28;20296;-70
2021/01/14 13:41:34;;;;;;;14.20;6.40;;;;;;;;;;5062766;28;20398;-70
2021/01/14 13:43:59;;;;;;;16.30;6.10;;;;;;;;;;5056434;28;20219;-70
2021/01/14 13:46:27;;;;;;;14.93;5.97;;;;;;;;;;5066728;28;20177;-70
2021/01/14 13:48:54;;;;;;;16.47;6.03;;;;;;;;;;5052650;28;20281;-70
2021/01/14 13:51:30;;;;;;;17.63;7.20;;;;;;;;;;5060250;28;20640;-70
2021/01/14 13:53:56;;;;;;;14.50;7.03;;;;;;;;;;5055946;28;20227;-70
2021/01/14 13:56:22;;;;;;;16.63;6.10;;;;;;;;;;5066615;28;20620;-70
2021/01/14 13:58:47;;;;;;;15.50;6.43;;;;;;;;;;5057042;28;20204;-70
2021/01/14 14:01:20;;;;;;;16.03;6.87;;;;;;;;;;5067816;28;20188;-70
2021/01/14 14:03:45;;;;;;;12.50;6.10;;;;;;;;;;5065847;28;20199;-70
2021/01/14 14:06:11;;;;;;;14.87;7.10;;;;;;;;;;5058245;28;20209;-70
2021/01/14 14:08:36;;;;;;;14.83;7.23;;;;;;;;;;5045963;28;20181;-70
2021/01/14 14:11:01;;;;;;;19.30;7.00;;;;;;;;;;5054772;28;20556;-70
2021/01/14 14:13:28;;;;;;;19.60;7.17;;;;;;;;;;5044369;28;20276;-72
2021/01/14 14:15:53;;;;;;;16.33;7.17;;;;;;;;;;5049584;28;20200;-70
2021/01/14 14:18:18;;;;;;;15.00;6.17;;;;;;;;;;5065055;28;20192;-70
2021/01/14 14:20:43;;;;;;;16.10;7.17;;;;;;;;;;5053164;28;20197;-70
2021/01/14 14:23:09;;;;;;;19.83;7.17;;;;;;;;;;5058657;28;20204;-70
2021/01/14 14:25:34;;;;;;;13.77;6.73;;;;;;;;;;5059732;28;20203;-70
2021/01/14 14:27:59;;;;;;;15.47;6.90;;;;;;;;;;5044984;28;20202;-70
2021/01/14 14:30:25;;;;;;;15.20;7.00;;;;;;;;;;5055469;28;20196;-70
2021/01/14 14:32:50;;;;;;;13.43;6.77;;;;;;;;;;5061983;28;20303;-70
2021/01/14 14:35:16;;;;;;;11.30;6.57;;;;;;;;;;5065075;28;20209;-70
2021/01/14 14:37:41;;;;;;;17.10;7.57;;;;;;;;;;5064145;28;20663;-70
2021/01/14 14:40:07;;;;;;;17.37;7.07;;;;;;;;;;5086186;28;20188;-70
2021/01/14 14:42:32;;;;;;;13.80;7.57;;;;;;;;;;5070797;28;20223;-70
2021/01/14 14:44:57;;;;;;;17.10;7.40;;;;;;;;;;5085227;28;20285;-70